Rawson, Ohio
Current Conditions -  °F | °C
As of 6:53 AM on Sunday 23 Nov 2014 (Local Time) from KFDY Reporting Station
Overcast Overcast  
Wind Chill: 40°   Ceiling: 4700
Heat Index: 45°   Visibility: 9mi
Dew Point: 42°   Wind: 9mph
Humidity: 90%   Direction: 130°SE
Pressure: 29.95"   Gusts: NA
Location:  40.96°N, 83.78°W
Report Text: KFDY 231153Z AUTO 13008KT 9SM OVC047 07/06 A2995 RMK AO2 RAB00E10 SLP140 P0000 60008 70014 T00720056 10106 20072 58013
Loading
Personal Weather Stations






























Interactive Weather Map New forecast layout! Learn more

10-Day Weather Forecast

Advertisements
Track Severe Weather on mobile